Maryland METAR Reports


Distance/Direction noted is from Ellicott City, MD as the crow flies

KCBE - Cumberland - 118 miles WNW
Updated: Fri, 08/01/2014 8:02 PM
Overcast
Overcast
 Wind from calm
Wind: Calm
Temperature: 75°F
Dew Point: 63°F
Humidity: 65%
Barometer: 30.17 inHg
Clouds: Overcast
Visibility: 10 miles
Cloud Details: Mostly Cloudy 3800 ft
Overcast 4500 ft
2014/08/02 00:02 KCBE 020002Z AUTO 00000KT 10SM BKN038 OVC045 24/17 A3017 RMK AO1
KHGR - Hagerstown - 57 miles NW
Updated: Fri, 08/01/2014 7:53 PM
Few Clouds
Few Clouds
 Wind from S
Wind: S 6 mph
Temperature: 73°F
Dew Point: 63°F
Humidity: 69%
Barometer: 30.16 inHg
Clouds: Few Clouds
Visibility: 10 miles
Cloud Details: Few Clouds 9000 ft
2014/08/01 23:53 KHGR 012353Z 17005KT 10SM FEW090 23/17 A3016 RMK AO2 SLP217 T02280172 10250 20228 56004
 
KFDK - Frederick - 34 miles NW
Updated: Fri, 08/01/2014 7:50 PM
Clear
Clear
 Wind from calm
Wind: Calm
Temperature: 73°F
Dew Point: 68°F
Humidity: 83%
Barometer: 30.18 inHg
Clouds: Clear
Visibility: 10 miles
2014/08/01 23:50 KFDK 012350Z 00000KT 10SM SKC 23/20 A3018
KGAI - Gaithersburg - 26 miles SW
Updated: Fri, 08/01/2014 7:55 PM
Mostly Cloudy
Mostly Cloudy
 Wind from SE
Wind: SE 6 mph
Temperature: 73°F
Dew Point: 63°F
Humidity: 69%
Barometer: 30.20 inHg
Clouds: Mostly Cloudy
Visibility: 10 miles
Cloud Details: Partly Cloudy 3100 ft
Mostly Cloudy 3900 ft
2014/08/01 23:55 KGAI 012355Z AUTO 13005KT 10SM SCT031 BKN039 23/17 A3020 RMK AO1 10260 20220 402700190 57003
 
KBWI - BWI Airport - 15 miles SE
Updated: Fri, 08/01/2014 7:54 PM
Mostly Cloudy
Mostly Cloudy
 Wind from calm
Wind: Calm
Temperature: 73°F
Dew Point: 64°F
Humidity: 74%
Barometer: 30.15 inHg
Clouds: Mostly Cloudy
Visibility: 10 miles
Cloud Details: Few Clouds 3600 ft
Partly Cloudy 7000 ft
Mostly Cloudy 13000 ft
2014/08/01 23:54 KBWI 012354Z 00000KT 10SM FEW036 SCT070 BKN130 23/18 A3015 RMK AO2 SLP209 60000 T02330178 10272 20233 57003
KNAK - Annapolis - 32 miles SSE
Updated: Fri, 08/01/2014 7:54 PM
Few Clouds
Few Clouds
 Wind from E
Wind: E 7 mph
Temperature: 75°F
Dew Point: 66°F
Humidity: 74%
Barometer: 30.16 inHg
Clouds: Few Clouds
Visibility: 8 miles
Cloud Details: Few Clouds 2600 ft
Few Clouds 12000 ft
2014/08/01 23:54 KNAK 012354Z AUTO 10006KT 8SM FEW026 FEW120 24/19 A3016 RMK AO2 SLP213 60000 T02390194 10267 20239 55002
 
KESN - Easton - 63 miles SE
Updated: Fri, 08/01/2014 7:55 PM
Overcast
Overcast
 Wind from calm
Wind: Calm
Temperature: 73°F
Dew Point: 73°F
Humidity: 100%
Barometer: 30.19 inHg
Clouds: Overcast
Visibility: 7 miles
Cloud Details: Overcast 10000 ft
2014/08/01 23:55 KESN 012355Z 00000KT 7SM OVC100 23/23 A3019
KSBY - Salisbury - 112 miles SE
Updated: Fri, 08/01/2014 7:54 PM
Partly Cloudy
Partly Cloudy
 Wind from ENE
Wind: ENE 3 mph
Temperature: 73°F
Dew Point: 70°F
Humidity: 89%
Barometer: 30.16 inHg
Clouds: Partly Cloudy
Visibility: 7 miles
Cloud Details: Partly Cloudy 11000 ft
2014/08/01 23:54 KSBY 012354Z 07003KT 7SM SCT110 23/21 A3016 RMK AO2 RAB02E21 SLP214 P0000 60000 T02330206 10267 20233 55007